createdAt,value
2023-04-16T00:01:17.232Z,100741.69
2023-04-16T00:03:44.569Z,100743.00
2023-04-16T00:06:12.693Z,100663.38
2023-04-16T00:08:41.131Z,100716.69
2023-04-16T00:11:08.419Z,100746.25
2023-04-16T00:13:35.796Z,100729.97
2023-04-16T00:16:03.107Z,100734.75
2023-04-16T00:18:30.392Z,100744.56
2023-04-16T00:20:57.568Z,100606.91
2023-04-16T00:23:25.569Z,100720.16
2023-04-16T00:25:53.928Z,100718.72
2023-04-16T00:28:21.267Z,100754.03
2023-04-16T00:30:48.455Z,100728.44
2023-04-16T00:33:17.235Z,100726.84
2023-04-16T00:35:48.091Z,100693.84
2023-04-16T00:38:15.357Z,100748.31
2023-04-16T00:40:42.528Z,100690.91
2023-04-16T00:43:09.771Z,100609.47
2023-04-16T00:45:37.324Z,100745.59
2023-04-16T00:48:06.115Z,100749.72
2023-04-16T00:50:34.116Z,100754.47
2023-04-16T00:53:02.405Z,100725.72
2023-04-16T00:55:29.935Z,100709.06
2023-04-16T00:57:56.988Z,100681.53
2023-04-16T01:00:24.357Z,100745.22
2023-04-16T01:02:51.701Z,100748.00
2023-04-16T01:05:19.790Z,100717.47
2023-04-16T01:07:46.986Z,100749.16
2023-04-16T01:10:14.171Z,100664.03
2023-04-16T01:12:41.195Z,100733.44
2023-04-16T01:15:08.861Z,100735.31
2023-04-16T01:17:36.098Z,100732.50
2023-04-16T01:20:03.399Z,100737.44
2023-04-16T01:22:30.699Z,100730.84
2023-04-16T01:24:57.709Z,100736.72
2023-04-16T01:27:24.981Z,100713.28
2023-04-16T01:29:52.262Z,100719.59
2023-04-16T01:32:25.433Z,100717.72
2023-04-16T01:34:52.523Z,100704.44
2023-04-16T01:37:19.733Z,100655.13
2023-04-16T01:39:47.004Z,100726.16
2023-04-16T01:42:14.134Z,100734.28
2023-04-16T01:44:41.205Z,100734.34
2023-04-16T01:47:08.830Z,100741.72
2023-04-16T01:49:36.592Z,100677.91
2023-04-16T01:52:03.815Z,100731.59
2023-04-16T01:54:31.038Z,100731.59
2023-04-16T01:56:59.284Z,100688.25
2023-04-16T01:59:26.455Z,100715.78
2023-04-16T02:01:54.291Z,100699.00
2023-04-16T02:04:21.715Z,100674.25
2023-04-16T02:06:49.033Z,100723.66
2023-04-16T02:09:16.309Z,100614.63
2023-04-16T02:11:43.504Z,100673.25
2023-04-16T02:14:10.871Z,100667.97
2023-04-16T02:16:38.228Z,100667.97
2023-04-16T02:19:31.551Z,100709.13
2023-04-16T02:21:58.884Z,100717.00
2023-04-16T02:24:26.207Z,100723.69
2023-04-16T02:26:54.332Z,100690.69
2023-04-16T02:29:22.743Z,100727.56
2023-04-16T02:32:00.036Z,100708.84
2023-04-16T02:34:28.628Z,100688.81
2023-04-16T02:36:56.163Z,100705.75
2023-04-16T02:39:23.312Z,100712.19
2023-04-16T02:41:50.734Z,100723.13
2023-04-16T02:44:17.934Z,100683.69
2023-04-16T02:46:45.613Z,100691.97
2023-04-16T02:49:12.989Z,100709.91
2023-04-16T02:51:40.169Z,100691.97
2023-04-16T02:54:07.562Z,100705.84
2023-04-16T02:56:34.618Z,100703.38
2023-04-16T02:59:01.712Z,100687.25
2023-04-16T03:01:29.183Z,100652.59
2023-04-16T03:03:56.865Z,100708.41
2023-04-16T03:06:24.087Z,100686.69
2023-04-16T03:08:51.281Z,100687.84
2023-04-16T03:11:18.482Z,100633.94
2023-04-16T03:13:46.119Z,100702.13
2023-04-16T03:16:13.283Z,100676.81
2023-04-16T03:18:40.574Z,100668.25
2023-04-16T03:21:07.688Z,100682.31
2023-04-16T03:23:35.943Z,100714.28
2023-04-16T03:26:03.158Z,100729.34
2023-04-16T03:28:30.508Z,100720.28
2023-04-16T03:30:58.744Z,100645.34
2023-04-16T03:33:26.397Z,100723.41
2023-04-16T03:35:58.085Z,100700.31
2023-04-16T03:38:27.440Z,100715.03
2023-04-16T03:40:57.015Z,100709.47
2023-04-16T03:43:24.186Z,100687.16
2023-04-16T03:45:51.503Z,100724.34
2023-04-16T03:48:21.943Z,100729.66
2023-04-16T03:50:49.234Z,100698.97
2023-04-16T03:53:19.026Z,100715.19
2023-04-16T03:55:50.510Z,100735.47
2023-04-16T03:58:18.196Z,100661.97
2023-04-16T04:00:45.372Z,100735.94
2023-04-16T04:03:17.342Z,100727.28
2023-04-16T04:05:46.922Z,100738.63
2023-04-16T04:08:16.953Z,100685.72
2023-04-16T04:10:45.997Z,100713.88
2023-04-16T04:13:14.516Z,100721.81
2023-04-16T04:15:41.720Z,100756.81
2023-04-16T04:18:08.947Z,100759.31
2023-04-16T04:20:40.017Z,100713.00
2023-04-16T04:23:07.960Z,100743.59
2023-04-16T04:25:36.001Z,100749.28
2023-04-16T04:28:03.291Z,100743.72
2023-04-16T04:30:30.763Z,100764.88
2023-04-16T04:32:58.079Z,100753.28
2023-04-16T04:35:25.354Z,100754.06
2023-04-16T04:37:53.181Z,100762.78
2023-04-16T04:40:21.196Z,100716.25
2023-04-16T04:42:48.494Z,100747.41
2023-04-16T04:45:16.239Z,100766.44
2023-04-16T04:47:43.528Z,100772.25
2023-04-16T04:50:11.327Z,100781.94
2023-04-16T04:52:38.866Z,100768.31
2023-04-16T04:55:07.722Z,100753.06
2023-04-16T04:57:35.685Z,100713.13
2023-04-16T05:00:04.478Z,100756.19
2023-04-16T05:02:40.092Z,100778.72
2023-04-16T05:05:07.750Z,100748.97
2023-04-16T05:07:34.981Z,100781.53
2023-04-16T05:10:02.071Z,100765.44
2023-04-16T05:12:29.248Z,100771.56
2023-04-16T05:14:56.421Z,100785.63
2023-04-16T05:17:23.636Z,100783.34
2023-04-16T05:19:51.139Z,100775.69
2023-04-16T05:22:19.151Z,100802.78
2023-04-16T05:24:46.386Z,100788.94
2023-04-16T05:27:13.499Z,100752.31
2023-04-16T05:29:40.784Z,100802.16
2023-04-16T05:32:08.060Z,100767.34
2023-04-16T05:34:35.154Z,100779.97
2023-04-16T05:37:02.368Z,100726.84
2023-04-16T05:39:29.442Z,100705.66
2023-04-16T05:41:56.541Z,100790.84
2023-04-16T05:44:23.802Z,100804.78
2023-04-16T05:46:50.936Z,100761.69
2023-04-16T05:49:21.681Z,100798.38
2023-04-16T05:51:50.711Z,100764.13
2023-04-16T05:54:18.040Z,100765.88
2023-04-16T05:56:45.263Z,100809.50
2023-04-16T05:59:12.534Z,100799.09
2023-04-16T06:01:39.712Z,100807.13
2023-04-16T06:04:06.905Z,100762.59
2023-04-16T06:06:34.062Z,100752.00
2023-04-16T06:09:01.218Z,100806.25
2023-04-16T06:11:30.113Z,100769.06
2023-04-16T06:13:57.282Z,100803.91
2023-04-16T06:16:24.481Z,100806.25
2023-04-16T06:18:51.723Z,100796.47
2023-04-16T06:21:18.922Z,100802.09
2023-04-16T06:23:46.190Z,100783.78
2023-04-16T06:26:13.393Z,100788.97
2023-04-16T06:28:40.539Z,100804.31
2023-04-16T06:31:07.793Z,100798.91
2023-04-16T06:33:35.210Z,100796.50
2023-04-16T06:36:02.368Z,100790.00
2023-04-16T06:38:29.524Z,100794.44
2023-04-16T06:40:56.827Z,100790.38
2023-04-16T06:43:24.071Z,100795.09
2023-04-16T06:45:51.399Z,100791.41
2023-04-16T06:48:18.670Z,100706.88
2023-04-16T06:50:46.092Z,100765.09
2023-04-16T06:53:13.312Z,100806.94
2023-04-16T06:55:40.395Z,100783.81
2023-04-16T06:58:07.548Z,100760.69
2023-04-16T07:00:34.769Z,100772.09
2023-04-16T07:03:02.369Z,100802.66
2023-04-16T07:05:29.722Z,100791.25
2023-04-16T07:07:57.794Z,100767.13
2023-04-16T07:10:25.594Z,100797.66
2023-04-16T07:12:52.949Z,100761.13
2023-04-16T07:15:20.150Z,100796.97
2023-04-16T07:17:47.392Z,100783.00
2023-04-16T07:20:14.728Z,100780.25
2023-04-16T07:22:41.886Z,100791.25
2023-04-16T07:25:09.841Z,100793.44
2023-04-16T07:27:36.921Z,100790.28
2023-04-16T07:30:04.474Z,100789.50
2023-04-16T07:32:31.785Z,100790.75
2023-04-16T07:34:58.931Z,100795.28
2023-04-16T07:37:26.092Z,100753.25
2023-04-16T07:39:54.114Z,100789.09
2023-04-16T07:42:22.826Z,100802.09
2023-04-16T07:44:49.914Z,100801.13
2023-04-16T07:47:17.116Z,100801.38
2023-04-16T07:49:44.270Z,100664.34
2023-04-16T07:52:12.133Z,100813.13
2023-04-16T07:54:39.394Z,100818.03
2023-04-16T07:57:06.421Z,100810.88
2023-04-16T07:59:33.622Z,100745.03
2023-04-16T08:02:00.880Z,100819.59
2023-04-16T08:04:28.263Z,100762.88
2023-04-16T08:06:55.900Z,100811.63
2023-04-16T08:09:24.286Z,100824.50
2023-04-16T08:11:51.481Z,100805.56
2023-04-16T08:14:18.632Z,100799.41
2023-04-16T08:16:45.985Z,100754.41
2023-04-16T08:19:13.340Z,100822.34
2023-04-16T08:21:40.798Z,100807.41
2023-04-16T08:24:08.242Z,100764.09
2023-04-16T08:26:36.086Z,100822.25
2023-04-16T08:29:03.289Z,100789.94
2023-04-16T08:31:30.674Z,100823.31
2023-04-16T08:33:57.948Z,100803.63
2023-04-16T08:36:25.148Z,100813.50
2023-04-16T08:38:52.471Z,100762.78
2023-04-16T08:41:22.713Z,100805.06
2023-04-16T08:43:54.680Z,100793.31
2023-04-16T08:46:25.256Z,100786.94
2023-04-16T08:48:56.312Z,100783.66
2023-04-16T08:51:24.327Z,100800.50
2023-04-16T08:54:03.027Z,100783.00
2023-04-16T08:56:32.200Z,100779.06
2023-04-16T08:59:02.115Z,100770.38
2023-04-16T09:01:33.962Z,100745.78
2023-04-16T09:04:01.849Z,100776.25
2023-04-16T09:06:31.913Z,100675.22
2023-04-16T09:09:01.848Z,100739.94
2023-04-16T09:11:29.790Z,100779.28
2023-04-16T09:13:58.019Z,100733.94
2023-04-16T09:16:31.539Z,100776.84
2023-04-16T09:18:59.203Z,100756.00
2023-04-16T09:21:26.576Z,100781.38
2023-04-16T09:23:54.208Z,100702.06
2023-04-16T09:26:22.026Z,100774.44
2023-04-16T09:28:51.438Z,100755.34
2023-04-16T09:31:20.226Z,100657.88
2023-04-16T09:34:08.709Z,100779.91
2023-04-16T09:36:36.986Z,100782.09
2023-04-16T09:39:04.368Z,100756.47
2023-04-16T09:41:36.117Z,100787.88
2023-04-16T09:44:05.453Z,100783.56
2023-04-16T09:46:43.129Z,100784.72
2023-04-16T09:49:18.750Z,100797.13
2023-04-16T09:51:49.815Z,100757.34
2023-04-16T09:54:16.882Z,100745.38
2023-04-16T09:56:46.354Z,100781.63
2023-04-16T09:59:21.592Z,100780.31
2023-04-16T10:01:50.152Z,100788.50
2023-04-16T10:04:17.675Z,100758.00
2023-04-16T10:06:46.997Z,100748.16
2023-04-16T10:09:14.188Z,100757.03
2023-04-16T10:11:41.492Z,100789.69
2023-04-16T10:14:09.408Z,100752.31
2023-04-16T10:16:37.172Z,100756.31
2023-04-16T10:19:05.055Z,100769.22
2023-04-16T10:21:34.457Z,100764.19
2023-04-16T10:24:03.001Z,100779.63
2023-04-16T10:26:31.344Z,100780.63
2023-04-16T10:28:58.997Z,100755.72
2023-04-16T10:31:27.541Z,100772.47
2023-04-16T10:33:56.340Z,100780.47
2023-04-16T10:36:24.931Z,100783.63
2023-04-16T10:38:53.263Z,100777.38
2023-04-16T10:41:21.284Z,100740.53
2023-04-16T10:43:51.937Z,100773.50
2023-04-16T10:46:31.047Z,100779.88
2023-04-16T10:49:12.707Z,100747.56
2023-04-16T10:51:39.918Z,100744.22
2023-04-16T10:54:12.734Z,100766.88
2023-04-16T10:56:40.159Z,100772.41
2023-04-16T10:59:08.107Z,100777.34
2023-04-16T11:01:37.215Z,100682.06
2023-04-16T11:04:19.952Z,100769.75
2023-04-16T11:07:15.041Z,100762.97
2023-04-16T11:10:13.057Z,100742.91
2023-04-16T11:12:42.225Z,100719.16
2023-04-16T11:15:12.634Z,100746.81
2023-04-16T11:17:51.014Z,100741.66
2023-04-16T11:20:21.106Z,100738.91
2023-04-16T11:22:49.974Z,100742.38
2023-04-16T11:25:31.791Z,100711.56
2023-04-16T11:27:59.321Z,100732.78
2023-04-16T11:30:37.253Z,100741.94
2023-04-16T11:33:13.554Z,100721.59
2023-04-16T11:35:41.532Z,100729.66
2023-04-16T11:38:08.959Z,100683.16
2023-04-16T11:40:36.521Z,100719.25
2023-04-16T11:43:24.103Z,100731.31
2023-04-16T11:46:07.471Z,100687.13
2023-04-16T11:48:51.285Z,100731.09
2023-04-16T11:51:19.780Z,100735.22
2023-04-16T11:53:54.483Z,100729.19
2023-04-16T11:56:31.648Z,100721.69
2023-04-16T11:59:19.113Z,100718.31
2023-04-16T12:01:51.891Z,100714.84
2023-04-16T12:04:22.760Z,100652.44
2023-04-16T12:07:10.127Z,100707.56
2023-04-16T12:09:40.428Z,100680.66
2023-04-16T12:12:32.110Z,100696.94
2023-04-16T12:15:02.071Z,100686.22
2023-04-16T12:17:30.276Z,100692.22
2023-04-16T12:20:00.813Z,100687.00
2023-04-16T12:22:32.653Z,100675.78
2023-04-16T12:25:03.803Z,100684.13
2023-04-16T12:27:53.677Z,100690.13
2023-04-16T12:30:23.266Z,100681.00
2023-04-16T12:32:52.785Z,100675.00
2023-04-16T12:35:32.094Z,100666.88
2023-04-16T12:37:59.835Z,100633.97
2023-04-16T12:40:27.781Z,100673.88
2023-04-16T12:42:55.149Z,100655.63
2023-04-16T12:45:22.549Z,100646.47
2023-04-16T12:47:50.703Z,100661.56
2023-04-16T12:50:18.606Z,100631.81
2023-04-16T12:52:46.050Z,100656.56
2023-04-16T12:55:14.247Z,100649.44
2023-04-16T12:57:41.600Z,100553.03
2023-04-16T13:00:10.932Z,100604.91
2023-04-16T13:02:38.349Z,100615.84
2023-04-16T13:05:05.960Z,100624.91
2023-04-16T13:07:34.151Z,100624.88
2023-04-16T13:10:01.569Z,100607.16
2023-04-16T13:12:28.740Z,100632.03
2023-04-16T13:14:56.607Z,100633.34
2023-04-16T13:17:24.029Z,100590.31
2023-04-16T13:19:51.193Z,100609.88
2023-04-16T13:22:18.313Z,100598.44
2023-04-16T13:24:46.195Z,100579.38
2023-04-16T13:27:15.282Z,100540.22
2023-04-16T13:29:42.531Z,100582.13
2023-04-16T13:32:10.015Z,100546.59
2023-04-16T13:34:37.486Z,100604.50
2023-04-16T13:37:04.740Z,100589.31
2023-04-16T13:39:31.850Z,100591.91
2023-04-16T13:41:58.991Z,100594.22
2023-04-16T13:44:26.197Z,100596.53
2023-04-16T13:46:53.592Z,100593.63
2023-04-16T13:49:20.832Z,100591.91
2023-04-16T13:51:48.101Z,100593.19
2023-04-16T13:54:15.235Z,100501.03
2023-04-16T13:56:43.168Z,100579.16
2023-04-16T13:59:11.345Z,100560.06
2023-04-16T14:01:39.777Z,100577.22
2023-04-16T14:04:07.675Z,100575.41
2023-04-16T14:06:35.019Z,100472.41
2023-04-16T14:09:02.448Z,100568.69
2023-04-16T14:11:29.787Z,100531.50
2023-04-16T14:13:56.995Z,100505.69
2023-04-16T14:16:24.375Z,100542.50
2023-04-16T14:18:52.098Z,100540.38
2023-04-16T14:21:19.363Z,100565.22
2023-04-16T14:23:48.161Z,100561.59
2023-04-16T14:26:15.610Z,100558.88
2023-04-16T14:28:42.879Z,100561.63
2023-04-16T14:31:10.094Z,100508.09
2023-04-16T14:33:37.174Z,100558.81
2023-04-16T14:36:04.637Z,100543.13
2023-04-16T14:38:32.117Z,100502.78
2023-04-16T14:41:00.630Z,100498.34
2023-04-16T14:43:28.140Z,100555.38
2023-04-16T14:45:59.122Z,100551.56
2023-04-16T14:48:26.358Z,100566.16
2023-04-16T14:50:54.074Z,100564.31
2023-04-16T14:53:23.082Z,100541.09
2023-04-16T14:55:50.615Z,100560.19
2023-04-16T14:58:17.834Z,100567.00
2023-04-16T15:00:45.009Z,100566.97
2023-04-16T15:03:12.323Z,100567.53
2023-04-16T15:05:39.607Z,100559.69
2023-04-16T15:08:07.411Z,100566.47
2023-04-16T15:10:35.205Z,100567.78
2023-04-16T15:13:02.336Z,100545.34
2023-04-16T15:15:29.524Z,100526.31
2023-04-16T15:17:57.822Z,100534.63
2023-04-16T15:20:25.049Z,100529.44
2023-04-16T15:22:53.676Z,100521.41
2023-04-16T15:25:21.076Z,100565.94
2023-04-16T15:27:48.233Z,100574.03
2023-04-16T15:30:15.820Z,100568.28
2023-04-16T15:32:44.789Z,100579.47
2023-04-16T15:35:13.495Z,100557.63
2023-04-16T15:37:41.054Z,100586.59
2023-04-16T15:40:08.684Z,100578.22
2023-04-16T15:42:35.746Z,100562.13
2023-04-16T15:45:02.963Z,100567.06
2023-04-16T15:47:30.347Z,100572.31
2023-04-16T15:49:57.539Z,100583.72
2023-04-16T15:52:24.643Z,100527.31
2023-04-16T15:54:51.870Z,100568.25
2023-04-16T15:57:19.278Z,100565.13
2023-04-16T15:59:59.518Z,100509.13
2023-04-16T16:02:34.188Z,100529.13
2023-04-16T16:05:01.617Z,100511.16
2023-04-16T16:07:28.898Z,100552.69
2023-04-16T16:09:56.442Z,100573.31
2023-04-16T16:12:23.577Z,100542.53
2023-04-16T16:14:51.030Z,100591.91
2023-04-16T16:17:20.366Z,100562.41
2023-04-16T16:19:47.646Z,100532.63
2023-04-16T16:22:16.029Z,100572.28
2023-04-16T16:24:43.235Z,100570.19
2023-04-16T16:27:28.938Z,100566.00
2023-04-16T16:29:56.074Z,100564.41
2023-04-16T16:32:23.284Z,100555.25
2023-04-16T16:34:50.506Z,100563.34
2023-04-16T16:37:17.677Z,100558.88
2023-04-16T16:39:44.847Z,100572.91
2023-04-16T16:42:12.073Z,100546.78
2023-04-16T16:44:39.324Z,100578.34
2023-04-16T16:47:06.680Z,100573.22
2023-04-16T16:49:33.945Z,100549.22
2023-04-16T16:52:01.095Z,100574.19
2023-04-16T16:54:28.443Z,100559.81
2023-04-16T16:56:55.662Z,100559.50
2023-04-16T16:59:22.753Z,100524.63
2023-04-16T17:01:49.969Z,100527.75
2023-04-16T17:04:20.055Z,100562.97
2023-04-16T17:06:47.627Z,100554.63
2023-04-16T17:09:14.937Z,100561.13
2023-04-16T17:11:42.076Z,100545.00
2023-04-16T17:14:09.274Z,100592.78
2023-04-16T17:16:36.742Z,100577.63
2023-04-16T17:19:04.017Z,100588.09
2023-04-16T17:21:33.437Z,100590.47
2023-04-16T17:24:00.650Z,100594.94
2023-04-16T17:26:27.795Z,100612.50
2023-04-16T17:28:56.749Z,100601.81
2023-04-16T17:31:25.605Z,100607.53
2023-04-16T17:33:54.103Z,100600.03
2023-04-16T17:36:23.233Z,100615.94
2023-04-16T17:38:50.723Z,100626.13
2023-04-16T17:41:18.139Z,100620.41
2023-04-16T17:43:49.801Z,100575.50
2023-04-16T17:46:17.210Z,100632.38
2023-04-16T17:48:44.434Z,100609.66
2023-04-16T17:51:12.257Z,100639.19
2023-04-16T17:53:39.644Z,100640.00
2023-04-16T17:56:06.922Z,100636.84
2023-04-16T17:58:35.412Z,100650.16
2023-04-16T18:01:03.516Z,100639.22
2023-04-16T18:03:32.129Z,100652.00
2023-04-16T18:05:59.585Z,100661.44
2023-04-16T18:08:27.520Z,100654.34
2023-04-16T18:10:55.656Z,100674.97
2023-04-16T18:13:25.997Z,100691.88
2023-04-16T18:15:53.878Z,100662.34
2023-04-16T18:18:21.499Z,100697.09
2023-04-16T18:20:48.849Z,100696.03
2023-04-16T18:23:16.096Z,100694.91
2023-04-16T18:25:43.306Z,100670.84
2023-04-16T18:28:13.674Z,100719.63
2023-04-16T18:30:41.380Z,100718.22
2023-04-16T18:33:34.420Z,100715.44
2023-04-16T18:35:55.811Z,73810.25
2023-04-16T18:38:22.922Z,73810.25
2023-04-16T18:40:50.003Z,73810.25
2023-04-16T18:43:17.134Z,73810.25
2023-04-16T18:45:44.186Z,73810.25
2023-04-16T18:48:11.536Z,73810.25
2023-04-16T18:50:38.666Z,73810.25
2023-04-16T18:53:05.907Z,73810.25
2023-04-16T18:55:33.111Z,73810.25
2023-04-16T18:58:00.237Z,73810.25
2023-04-16T19:00:27.535Z,73810.25
2023-04-16T19:02:54.832Z,73810.25
2023-04-16T19:05:23.132Z,73810.25
2023-04-16T19:07:50.496Z,73810.25
2023-04-16T19:10:17.750Z,73810.25
2023-04-16T19:12:44.867Z,73810.25
2023-04-16T19:15:12.018Z,73810.25
2023-04-16T19:17:39.928Z,73810.25
2023-04-16T19:20:11.625Z,73810.25
2023-04-16T19:22:38.862Z,73810.25
2023-04-16T19:25:07.312Z,73810.25
2023-04-16T19:27:35.000Z,73810.25
2023-04-16T19:30:03.182Z,73810.25
2023-04-16T19:32:30.861Z,73810.25
2023-04-16T19:34:58.080Z,73810.25
2023-04-16T19:37:25.219Z,73810.25
2023-04-16T19:39:52.348Z,73810.25
2023-04-16T19:42:19.478Z,73810.25
2023-04-16T19:44:46.710Z,73810.25
2023-04-16T19:47:14.015Z,73810.25
2023-04-16T19:49:43.625Z,73810.25
2023-04-16T19:52:10.871Z,73810.25
2023-04-16T19:54:37.983Z,73810.25
2023-04-16T19:57:05.169Z,73810.25
2023-04-16T19:59:32.380Z,73810.25
2023-04-16T20:01:59.605Z,73810.25
2023-04-16T20:04:27.362Z,73810.25
2023-04-16T20:06:54.644Z,73810.25
2023-04-16T20:09:21.783Z,73810.25
2023-04-16T20:11:49.203Z,73810.25
2023-04-16T20:14:17.325Z,73810.25
2023-04-16T20:17:03.561Z,73810.25
2023-04-16T20:19:33.733Z,73810.25
2023-04-16T20:22:00.899Z,73810.25
2023-04-16T20:24:31.094Z,73810.25
2023-04-16T20:26:58.208Z,73810.25
2023-04-16T20:29:25.404Z,73810.25
2023-04-16T20:31:52.748Z,73810.25
2023-04-16T20:34:19.942Z,73810.25
2023-04-16T20:36:47.012Z,73810.25
2023-04-16T20:39:14.220Z,73810.25
2023-04-16T20:41:44.317Z,73810.25
2023-04-16T20:44:18.233Z,73810.25
2023-04-16T20:46:49.901Z,73810.25
2023-04-16T20:49:18.571Z,73810.25
2023-04-16T20:51:45.808Z,73810.25
2023-04-16T20:54:13.075Z,73810.25
2023-04-16T20:56:40.270Z,73810.25
2023-04-16T20:59:07.308Z,73810.25
2023-04-16T21:01:34.642Z,73810.25
2023-04-16T21:04:02.063Z,73810.25
2023-04-16T21:06:32.935Z,73810.25
2023-04-16T21:09:00.070Z,73810.25
2023-04-16T21:11:29.374Z,73810.25
2023-04-16T21:13:56.558Z,73810.25
2023-04-16T21:16:23.646Z,73810.25
2023-04-16T21:18:50.837Z,73810.25
2023-04-16T21:21:19.168Z,73810.25
2023-04-16T21:23:46.182Z,73810.25
2023-04-16T21:26:13.320Z,73810.25
2023-04-16T21:28:40.487Z,73810.25
2023-04-16T21:31:07.557Z,73810.25
2023-04-16T21:33:34.752Z,73810.25
2023-04-16T21:36:01.971Z,73810.25
2023-04-16T21:38:29.010Z,73810.25
2023-04-16T21:40:56.915Z,73810.25
2023-04-16T21:43:24.291Z,73810.25
2023-04-16T21:45:54.922Z,73810.25
2023-04-16T21:48:22.687Z,73810.25
2023-04-16T21:50:59.984Z,73810.25
2023-04-16T21:53:28.180Z,73810.25
2023-04-16T21:55:55.303Z,73810.25
2023-04-16T21:58:22.330Z,73810.25
2023-04-16T22:00:49.524Z,73810.25
2023-04-16T22:03:17.431Z,73810.25
2023-04-16T22:05:45.974Z,73810.25
2023-04-16T22:08:24.214Z,73810.25
2023-04-16T22:10:51.857Z,73810.25
2023-04-16T22:13:19.028Z,73810.25
2023-04-16T22:15:46.243Z,73810.25
2023-04-16T22:18:13.254Z,73810.25
2023-04-16T22:20:40.452Z,73810.25
2023-04-16T22:23:07.482Z,73810.25
2023-04-16T22:25:34.569Z,73810.25
2023-04-16T22:28:01.800Z,73810.25
2023-04-16T22:30:28.945Z,73810.25
2023-04-16T22:32:56.038Z,73810.25
2023-04-16T22:35:23.128Z,73810.25
2023-04-16T22:37:50.143Z,73810.25
2023-04-16T22:40:17.306Z,73810.25
2023-04-16T22:42:44.448Z,73810.25
2023-04-16T22:45:12.750Z,73810.25
2023-04-16T22:47:39.840Z,73810.25
2023-04-16T22:50:07.768Z,73810.25
2023-04-16T22:52:34.947Z,73810.25
2023-04-16T22:55:02.045Z,73810.25
2023-04-16T22:57:29.118Z,73810.25
2023-04-16T22:59:56.417Z,73810.25
2023-04-16T23:02:23.868Z,73810.25
2023-04-16T23:04:51.076Z,73810.25
2023-04-16T23:07:18.286Z,73810.25
2023-04-16T23:09:45.368Z,73810.25
2023-04-16T23:12:12.502Z,73810.25
2023-04-16T23:14:39.701Z,73810.25
2023-04-16T23:17:06.908Z,73810.25
2023-04-16T23:19:34.058Z,73810.25
2023-04-16T23:22:01.067Z,73810.25
2023-04-16T23:24:28.210Z,73810.25
2023-04-16T23:26:56.136Z,73810.25
2023-04-16T23:29:23.884Z,73810.25
2023-04-16T23:31:51.180Z,73810.25
2023-04-16T23:34:18.304Z,73810.25
2023-04-16T23:36:46.090Z,73810.25
2023-04-16T23:39:13.400Z,73810.25
2023-04-16T23:41:40.682Z,73810.25
2023-04-16T23:44:07.833Z,73810.25
2023-04-16T23:46:35.124Z,73810.25
2023-04-16T23:49:02.293Z,73810.25
2023-04-16T23:51:29.298Z,73810.25
2023-04-16T23:53:56.413Z,73810.25
2023-04-16T23:56:23.520Z,73810.25
2023-04-16T23:58:50.580Z,73810.25
